sensor_id;sensor_type;location;lat;lon;timestamp;P1;durP1;ratioP1;P2;durP2;ratioP2
21798;SDS011;24973;47.178;15.316;2023-05-29T00:00:53;10.27;;;4.57;;
21798;SDS011;24973;47.178;15.316;2023-05-29T00:03:44;7.00;;;4.90;;
21798;SDS011;24973;47.178;15.316;2023-05-29T00:06:33;7.97;;;4.97;;
21798;SDS011;24973;47.178;15.316;2023-05-29T00:09:23;6.70;;;4.47;;
21798;SDS011;24973;47.178;15.316;2023-05-29T00:12:12;8.67;;;5.10;;
21798;SDS011;24973;47.178;15.316;2023-05-29T00:15:02;9.73;;;4.13;;
21798;SDS011;24973;47.178;15.316;2023-05-29T00:17:51;7.80;;;4.83;;
21798;SDS011;24973;47.178;15.316;2023-05-29T00:20:42;6.77;;;4.70;;
21798;SDS011;24973;47.178;15.316;2023-05-29T00:23:31;7.10;;;4.63;;
21798;SDS011;24973;47.178;15.316;2023-05-29T00:26:20;5.87;;;4.33;;
21798;SDS011;24973;47.178;15.316;2023-05-29T00:29:09;6.60;;;4.30;;
21798;SDS011;24973;47.178;15.316;2023-05-29T00:31:58;7.37;;;5.07;;
21798;SDS011;24973;47.178;15.316;2023-05-29T00:34:47;8.53;;;4.40;;
21798;SDS011;24973;47.178;15.316;2023-05-29T00:37:38;9.77;;;5.60;;
21798;SDS011;24973;47.178;15.316;2023-05-29T00:40:27;10.07;;;5.20;;
21798;SDS011;24973;47.178;15.316;2023-05-29T00:43:16;7.53;;;5.10;;
21798;SDS011;24973;47.178;15.316;2023-05-29T00:46:05;6.00;;;4.83;;
21798;SDS011;24973;47.178;15.316;2023-05-29T00:48:54;7.73;;;5.53;;
21798;SDS011;24973;47.178;15.316;2023-05-29T00:51:44;7.37;;;5.20;;
21798;SDS011;24973;47.178;15.316;2023-05-29T00:54:35;6.37;;;4.50;;
21798;SDS011;24973;47.178;15.316;2023-05-29T00:57:24;8.07;;;5.07;;
21798;SDS011;24973;47.178;15.316;2023-05-29T01:00:13;6.87;;;4.67;;
21798;SDS011;24973;47.178;15.316;2023-05-29T01:03:03;6.27;;;4.80;;
21798;SDS011;24973;47.178;15.316;2023-05-29T01:05:54;6.70;;;5.27;;
21798;SDS011;24973;47.178;15.316;2023-05-29T01:08:44;6.73;;;4.37;;
21798;SDS011;24973;47.178;15.316;2023-05-29T01:11:36;5.10;;;4.60;;
21798;SDS011;24973;47.178;15.316;2023-05-29T01:14:31;7.43;;;4.83;;
21798;SDS011;24973;47.178;15.316;2023-05-29T01:17:24;5.90;;;4.60;;
21798;SDS011;24973;47.178;15.316;2023-05-29T01:20:18;8.90;;;5.53;;
21798;SDS011;24973;47.178;15.316;2023-05-29T01:23:24;8.63;;;5.63;;
21798;SDS011;24973;47.178;15.316;2023-05-29T01:29:40;12.17;;;4.83;;
21798;SDS011;24973;47.178;15.316;2023-05-29T01:32:31;5.57;;;4.47;;
21798;SDS011;24973;47.178;15.316;2023-05-29T01:35:20;6.23;;;4.87;;
21798;SDS011;24973;47.178;15.316;2023-05-29T01:38:09;8.70;;;5.57;;
21798;SDS011;24973;47.178;15.316;2023-05-29T01:40:58;8.13;;;5.83;;
21798;SDS011;24973;47.178;15.316;2023-05-29T01:43:49;6.27;;;4.40;;
21798;SDS011;24973;47.178;15.316;2023-05-29T01:46:38;5.47;;;4.50;;
21798;SDS011;24973;47.178;15.316;2023-05-29T01:49:28;6.63;;;3.97;;
21798;SDS011;24973;47.178;15.316;2023-05-29T01:52:17;9.30;;;5.20;;
21798;SDS011;24973;47.178;15.316;2023-05-29T01:55:06;7.43;;;5.00;;
21798;SDS011;24973;47.178;15.316;2023-05-29T01:57:56;7.33;;;5.13;;
21798;SDS011;24973;47.178;15.316;2023-05-29T02:00:47;8.83;;;4.63;;
21798;SDS011;24973;47.178;15.316;2023-05-29T02:03:36;6.43;;;5.20;;
21798;SDS011;24973;47.178;15.316;2023-05-29T02:06:25;10.17;;;6.53;;
21798;SDS011;24973;47.178;15.316;2023-05-29T02:09:15;12.20;;;5.03;;
21798;SDS011;24973;47.178;15.316;2023-05-29T02:12:05;7.27;;;4.67;;
21798;SDS011;24973;47.178;15.316;2023-05-29T02:14:54;6.37;;;4.70;;
21798;SDS011;24973;47.178;15.316;2023-05-29T02:17:45;8.17;;;5.63;;
21798;SDS011;24973;47.178;15.316;2023-05-29T02:20:34;8.37;;;5.90;;
21798;SDS011;24973;47.178;15.316;2023-05-29T02:23:23;7.40;;;5.33;;
21798;SDS011;24973;47.178;15.316;2023-05-29T02:26:12;12.70;;;5.93;;
21798;SDS011;24973;47.178;15.316;2023-05-29T02:29:02;6.53;;;5.13;;
21798;SDS011;24973;47.178;15.316;2023-05-29T02:31:53;10.33;;;5.07;;
21798;SDS011;24973;47.178;15.316;2023-05-29T02:34:43;7.00;;;4.87;;
21798;SDS011;24973;47.178;15.316;2023-05-29T02:37:33;9.47;;;5.73;;
21798;SDS011;24973;47.178;15.316;2023-05-29T02:40:22;7.27;;;5.47;;
21798;SDS011;24973;47.178;15.316;2023-05-29T02:43:12;10.23;;;5.80;;
21798;SDS011;24973;47.178;15.316;2023-05-29T02:46:02;7.07;;;5.40;;
21798;SDS011;24973;47.178;15.316;2023-05-29T02:48:51;8.50;;;6.10;;
21798;SDS011;24973;47.178;15.316;2023-05-29T02:51:41;8.23;;;5.53;;
21798;SDS011;24973;47.178;15.316;2023-05-29T02:54:30;8.90;;;5.73;;
21798;SDS011;24973;47.178;15.316;2023-05-29T02:57:19;8.13;;;5.63;;
21798;SDS011;24973;47.178;15.316;2023-05-29T03:00:09;11.83;;;5.50;;
21798;SDS011;24973;47.178;15.316;2023-05-29T03:02:59;11.57;;;6.23;;
21798;SDS011;24973;47.178;15.316;2023-05-29T03:05:49;7.70;;;5.93;;
21798;SDS011;24973;47.178;15.316;2023-05-29T03:08:40;7.60;;;5.50;;
21798;SDS011;24973;47.178;15.316;2023-05-29T03:11:31;13.83;;;6.27;;
21798;SDS011;24973;47.178;15.316;2023-05-29T03:14:22;6.00;;;5.40;;
21798;SDS011;24973;47.178;15.316;2023-05-29T03:17:11;8.97;;;5.63;;
21798;SDS011;24973;47.178;15.316;2023-05-29T03:20:00;10.43;;;6.23;;
21798;SDS011;24973;47.178;15.316;2023-05-29T03:22:52;10.03;;;5.90;;
21798;SDS011;24973;47.178;15.316;2023-05-29T03:25:42;10.77;;;5.87;;
21798;SDS011;24973;47.178;15.316;2023-05-29T03:28:31;9.53;;;5.00;;
21798;SDS011;24973;47.178;15.316;2023-05-29T03:31:21;7.60;;;5.07;;
21798;SDS011;24973;47.178;15.316;2023-05-29T03:34:10;7.83;;;5.07;;
21798;SDS011;24973;47.178;15.316;2023-05-29T03:36:59;8.77;;;4.90;;
21798;SDS011;24973;47.178;15.316;2023-05-29T03:39:49;13.20;;;6.63;;
21798;SDS011;24973;47.178;15.316;2023-05-29T03:42:40;7.93;;;5.80;;
21798;SDS011;24973;47.178;15.316;2023-05-29T03:45:29;9.30;;;7.07;;
21798;SDS011;24973;47.178;15.316;2023-05-29T03:48:18;10.18;;;7.00;;
21798;SDS011;24973;47.178;15.316;2023-05-29T03:51:07;7.57;;;5.70;;
21798;SDS011;24973;47.178;15.316;2023-05-29T03:53:56;9.77;;;5.33;;
21798;SDS011;24973;47.178;15.316;2023-05-29T03:56:46;8.43;;;5.30;;
21798;SDS011;24973;47.178;15.316;2023-05-29T03:59:36;9.77;;;5.27;;
21798;SDS011;24973;47.178;15.316;2023-05-29T04:02:25;7.47;;;4.37;;
21798;SDS011;24973;47.178;15.316;2023-05-29T04:05:14;11.17;;;6.17;;
21798;SDS011;24973;47.178;15.316;2023-05-29T04:08:03;5.57;;;4.63;;
21798;SDS011;24973;47.178;15.316;2023-05-29T04:11:00;13.17;;;5.53;;
21798;SDS011;24973;47.178;15.316;2023-05-29T04:13:50;11.40;;;5.60;;
21798;SDS011;24973;47.178;15.316;2023-05-29T04:16:40;6.13;;;4.93;;
21798;SDS011;24973;47.178;15.316;2023-05-29T04:19:30;11.87;;;5.67;;
21798;SDS011;24973;47.178;15.316;2023-05-29T04:22:19;10.87;;;5.13;;
21798;SDS011;24973;47.178;15.316;2023-05-29T04:25:08;8.20;;;5.90;;
21798;SDS011;24973;47.178;15.316;2023-05-29T04:27:57;10.23;;;5.53;;
21798;SDS011;24973;47.178;15.316;2023-05-29T04:30:49;9.40;;;5.23;;
21798;SDS011;24973;47.178;15.316;2023-05-29T04:33:40;8.10;;;5.60;;
21798;SDS011;24973;47.178;15.316;2023-05-29T04:36:31;9.33;;;5.80;;
21798;SDS011;24973;47.178;15.316;2023-05-29T04:39:24;8.03;;;5.57;;
21798;SDS011;24973;47.178;15.316;2023-05-29T04:42:13;10.53;;;6.13;;
21798;SDS011;24973;47.178;15.316;2023-05-29T04:45:03;9.97;;;5.33;;
21798;SDS011;24973;47.178;15.316;2023-05-29T04:47:52;7.40;;;5.33;;
21798;SDS011;24973;47.178;15.316;2023-05-29T04:50:43;7.03;;;5.47;;
21798;SDS011;24973;47.178;15.316;2023-05-29T04:53:32;10.97;;;6.67;;
21798;SDS011;24973;47.178;15.316;2023-05-29T04:56:21;10.83;;;5.77;;
21798;SDS011;24973;47.178;15.316;2023-05-29T04:59:10;8.73;;;4.90;;
21798;SDS011;24973;47.178;15.316;2023-05-29T05:02:00;8.43;;;6.07;;
21798;SDS011;24973;47.178;15.316;2023-05-29T05:04:49;17.00;;;6.87;;
21798;SDS011;24973;47.178;15.316;2023-05-29T05:07:39;7.33;;;5.67;;
21798;SDS011;24973;47.178;15.316;2023-05-29T05:10:28;8.37;;;5.77;;
21798;SDS011;24973;47.178;15.316;2023-05-29T05:13:17;7.80;;;6.20;;
21798;SDS011;24973;47.178;15.316;2023-05-29T05:16:06;7.47;;;5.60;;
21798;SDS011;24973;47.178;15.316;2023-05-29T05:18:55;9.30;;;7.03;;
21798;SDS011;24973;47.178;15.316;2023-05-29T05:21:44;9.10;;;6.03;;
21798;SDS011;24973;47.178;15.316;2023-05-29T05:24:35;7.17;;;5.10;;
21798;SDS011;24973;47.178;15.316;2023-05-29T05:27:24;9.60;;;5.53;;
21798;SDS011;24973;47.178;15.316;2023-05-29T05:30:13;9.20;;;6.93;;
21798;SDS011;24973;47.178;15.316;2023-05-29T05:33:02;7.50;;;6.30;;
21798;SDS011;24973;47.178;15.316;2023-05-29T05:35:51;7.17;;;5.40;;
21798;SDS011;24973;47.178;15.316;2023-05-29T05:38:41;7.73;;;6.03;;
21798;SDS011;24973;47.178;15.316;2023-05-29T05:41:31;11.63;;;6.07;;
21798;SDS011;24973;47.178;15.316;2023-05-29T05:44:20;8.60;;;5.33;;
21798;SDS011;24973;47.178;15.316;2023-05-29T05:47:09;7.20;;;5.80;;
21798;SDS011;24973;47.178;15.316;2023-05-29T05:49:59;11.20;;;6.47;;
21798;SDS011;24973;47.178;15.316;2023-05-29T05:52:48;10.27;;;6.30;;
21798;SDS011;24973;47.178;15.316;2023-05-29T05:55:37;7.83;;;5.53;;
21798;SDS011;24973;47.178;15.316;2023-05-29T05:58:27;13.23;;;6.77;;
21798;SDS011;24973;47.178;15.316;2023-05-29T06:01:16;11.90;;;5.80;;
21798;SDS011;24973;47.178;15.316;2023-05-29T06:04:06;9.07;;;6.33;;
21798;SDS011;24973;47.178;15.316;2023-05-29T06:06:56;8.30;;;6.33;;
21798;SDS011;24973;47.178;15.316;2023-05-29T06:09:45;9.40;;;6.37;;
21798;SDS011;24973;47.178;15.316;2023-05-29T06:12:34;8.27;;;6.13;;
21798;SDS011;24973;47.178;15.316;2023-05-29T06:15:24;10.87;;;7.00;;
21798;SDS011;24973;47.178;15.316;2023-05-29T06:18:13;10.43;;;6.00;;
21798;SDS011;24973;47.178;15.316;2023-05-29T06:21:02;9.50;;;5.93;;
21798;SDS011;24973;47.178;15.316;2023-05-29T06:23:53;10.70;;;6.33;;
21798;SDS011;24973;47.178;15.316;2023-05-29T06:26:43;8.80;;;6.07;;
21798;SDS011;24973;47.178;15.316;2023-05-29T06:29:32;8.13;;;6.23;;
21798;SDS011;24973;47.178;15.316;2023-05-29T06:32:22;8.77;;;6.47;;
21798;SDS011;24973;47.178;15.316;2023-05-29T06:35:12;9.63;;;6.13;;
21798;SDS011;24973;47.178;15.316;2023-05-29T06:38:02;9.60;;;6.33;;
21798;SDS011;24973;47.178;15.316;2023-05-29T06:40:51;9.67;;;6.40;;
21798;SDS011;24973;47.178;15.316;2023-05-29T06:43:40;10.37;;;7.20;;
21798;SDS011;24973;47.178;15.316;2023-05-29T06:46:29;11.60;;;6.73;;
21798;SDS011;24973;47.178;15.316;2023-05-29T06:49:20;15.20;;;7.83;;
21798;SDS011;24973;47.178;15.316;2023-05-29T06:52:09;12.30;;;7.57;;
21798;SDS011;24973;47.178;15.316;2023-05-29T06:54:58;13.40;;;7.40;;
21798;SDS011;24973;47.178;15.316;2023-05-29T06:57:47;10.10;;;6.43;;
21798;SDS011;24973;47.178;15.316;2023-05-29T07:00:36;13.07;;;8.70;;
21798;SDS011;24973;47.178;15.316;2023-05-29T07:03:26;12.37;;;9.30;;
21798;SDS011;24973;47.178;15.316;2023-05-29T07:06:17;11.00;;;8.33;;
21798;SDS011;24973;47.178;15.316;2023-05-29T07:09:06;12.60;;;7.97;;
21798;SDS011;24973;47.178;15.316;2023-05-29T07:11:55;9.30;;;7.53;;
21798;SDS011;24973;47.178;15.316;2023-05-29T07:14:44;12.23;;;8.33;;
21798;SDS011;24973;47.178;15.316;2023-05-29T07:17:34;13.27;;;8.67;;
21798;SDS011;24973;47.178;15.316;2023-05-29T07:20:23;14.03;;;8.70;;
21798;SDS011;24973;47.178;15.316;2023-05-29T07:23:14;12.77;;;8.00;;
21798;SDS011;24973;47.178;15.316;2023-05-29T07:26:03;12.40;;;8.53;;
21798;SDS011;24973;47.178;15.316;2023-05-29T07:28:52;13.07;;;8.23;;
21798;SDS011;24973;47.178;15.316;2023-05-29T07:31:41;12.83;;;8.23;;
21798;SDS011;24973;47.178;15.316;2023-05-29T07:34:30;11.73;;;7.87;;
21798;SDS011;24973;47.178;15.316;2023-05-29T07:37:19;13.33;;;7.07;;
21798;SDS011;24973;47.178;15.316;2023-05-29T07:40:10;15.27;;;8.80;;
21798;SDS011;24973;47.178;15.316;2023-05-29T07:42:59;11.87;;;7.33;;
21798;SDS011;24973;47.178;15.316;2023-05-29T07:45:48;9.50;;;6.80;;
21798;SDS011;24973;47.178;15.316;2023-05-29T07:48:38;11.87;;;7.50;;
21798;SDS011;24973;47.178;15.316;2023-05-29T07:51:27;10.37;;;7.77;;
21798;SDS011;24973;47.178;15.316;2023-05-29T07:54:17;10.63;;;7.17;;
21798;SDS011;24973;47.178;15.316;2023-05-29T07:57:09;10.17;;;7.77;;
21798;SDS011;24973;47.178;15.316;2023-05-29T07:59:58;9.20;;;6.63;;
21798;SDS011;24973;47.178;15.316;2023-05-29T08:02:48;11.67;;;6.83;;
21798;SDS011;24973;47.178;15.316;2023-05-29T08:05:38;12.53;;;7.60;;
21798;SDS011;24973;47.178;15.316;2023-05-29T08:08:27;10.43;;;6.30;;
21798;SDS011;24973;47.178;15.316;2023-05-29T08:11:16;10.50;;;6.93;;
21798;SDS011;24973;47.178;15.316;2023-05-29T08:14:07;10.10;;;6.83;;
21798;SDS011;24973;47.178;15.316;2023-05-29T08:16:56;7.90;;;6.10;;
21798;SDS011;24973;47.178;15.316;2023-05-29T08:19:45;6.17;;;4.60;;
21798;SDS011;24973;47.178;15.316;2023-05-29T08:22:34;8.77;;;4.70;;
21798;SDS011;24973;47.178;15.316;2023-05-29T08:25:23;10.20;;;4.83;;
21798;SDS011;24973;47.178;15.316;2023-05-29T08:28:12;9.97;;;4.77;;
21798;SDS011;24973;47.178;15.316;2023-05-29T08:31:03;6.37;;;4.90;;
21798;SDS011;24973;47.178;15.316;2023-05-29T08:33:53;8.80;;;5.30;;
21798;SDS011;24973;47.178;15.316;2023-05-29T08:36:42;7.60;;;5.17;;
21798;SDS011;24973;47.178;15.316;2023-05-29T08:39:31;7.70;;;6.03;;
21798;SDS011;24973;47.178;15.316;2023-05-29T08:42:21;8.93;;;5.13;;
21798;SDS011;24973;47.178;15.316;2023-05-29T08:45:13;9.13;;;4.90;;
21798;SDS011;24973;47.178;15.316;2023-05-29T08:48:03;7.57;;;5.07;;
21798;SDS011;24973;47.178;15.316;2023-05-29T08:50:54;7.63;;;4.63;;
21798;SDS011;24973;47.178;15.316;2023-05-29T08:53:44;6.00;;;4.70;;
21798;SDS011;24973;47.178;15.316;2023-05-29T08:56:33;9.33;;;5.23;;
21798;SDS011;24973;47.178;15.316;2023-05-29T08:59:23;8.33;;;6.27;;
21798;SDS011;24973;47.178;15.316;2023-05-29T09:02:14;9.23;;;4.40;;
21798;SDS011;24973;47.178;15.316;2023-05-29T09:05:05;6.10;;;4.17;;
21798;SDS011;24973;47.178;15.316;2023-05-29T09:07:56;6.07;;;4.60;;
21798;SDS011;24973;47.178;15.316;2023-05-29T09:10:45;7.30;;;4.63;;
21798;SDS011;24973;47.178;15.316;2023-05-29T09:13:34;10.53;;;5.03;;
21798;SDS011;24973;47.178;15.316;2023-05-29T09:16:23;7.67;;;5.10;;
21798;SDS011;24973;47.178;15.316;2023-05-29T09:19:13;10.17;;;4.07;;
21798;SDS011;24973;47.178;15.316;2023-05-29T09:22:04;7.20;;;4.40;;
21798;SDS011;24973;47.178;15.316;2023-05-29T09:24:55;8.47;;;4.17;;
21798;SDS011;24973;47.178;15.316;2023-05-29T09:27:44;7.10;;;5.07;;
21798;SDS011;24973;47.178;15.316;2023-05-29T09:30:37;7.43;;;4.50;;
21798;SDS011;24973;47.178;15.316;2023-05-29T09:33:27;5.40;;;4.43;;
21798;SDS011;24973;47.178;15.316;2023-05-29T09:36:22;6.30;;;4.53;;
21798;SDS011;24973;47.178;15.316;2023-05-29T09:39:13;7.20;;;4.30;;
21798;SDS011;24973;47.178;15.316;2023-05-29T09:42:04;7.70;;;3.87;;
21798;SDS011;24973;47.178;15.316;2023-05-29T09:44:53;4.63;;;3.73;;
21798;SDS011;24973;47.178;15.316;2023-05-29T09:47:43;6.13;;;4.13;;
21798;SDS011;24973;47.178;15.316;2023-05-29T09:50:32;9.50;;;4.33;;
21798;SDS011;24973;47.178;15.316;2023-05-29T09:53:23;5.83;;;4.33;;
21798;SDS011;24973;47.178;15.316;2023-05-29T09:56:14;6.93;;;4.73;;
21798;SDS011;24973;47.178;15.316;2023-05-29T09:59:04;6.43;;;4.23;;
21798;SDS011;24973;47.178;15.316;2023-05-29T10:01:55;8.37;;;4.43;;
21798;SDS011;24973;47.178;15.316;2023-05-29T10:04:50;5.93;;;4.13;;
21798;SDS011;24973;47.178;15.316;2023-05-29T10:07:39;6.13;;;4.93;;
21798;SDS011;24973;47.178;15.316;2023-05-29T10:10:34;4.83;;;4.10;;
21798;SDS011;24973;47.178;15.316;2023-05-29T10:13:24;7.80;;;4.37;;
21798;SDS011;24973;47.178;15.316;2023-05-29T10:16:15;8.60;;;4.70;;
21798;SDS011;24973;47.178;15.316;2023-05-29T10:19:07;6.30;;;5.00;;
21798;SDS011;24973;47.178;15.316;2023-05-29T10:22:00;6.93;;;4.47;;
21798;SDS011;24973;47.178;15.316;2023-05-29T10:24:50;6.33;;;4.17;;
21798;SDS011;24973;47.178;15.316;2023-05-29T10:27:40;6.57;;;4.73;;
21798;SDS011;24973;47.178;15.316;2023-05-29T10:30:33;8.23;;;4.80;;
21798;SDS011;24973;47.178;15.316;2023-05-29T10:33:31;9.37;;;4.70;;
21798;SDS011;24973;47.178;15.316;2023-05-29T10:36:27;10.00;;;5.70;;
21798;SDS011;24973;47.178;15.316;2023-05-29T10:39:20;6.53;;;5.13;;
21798;SDS011;24973;47.178;15.316;2023-05-29T10:45:51;12.43;;;4.97;;
21798;SDS011;24973;47.178;15.316;2023-05-29T10:48:40;5.97;;;4.20;;
21798;SDS011;24973;47.178;15.316;2023-05-29T10:51:30;5.67;;;3.90;;
21798;SDS011;24973;47.178;15.316;2023-05-29T10:54:21;8.10;;;5.10;;
21798;SDS011;24973;47.178;15.316;2023-05-29T10:57:12;6.37;;;4.57;;
21798;SDS011;24973;47.178;15.316;2023-05-29T11:00:05;8.23;;;4.93;;
21798;SDS011;24973;47.178;15.316;2023-05-29T11:03:03;7.30;;;3.70;;
21798;SDS011;24973;47.178;15.316;2023-05-29T11:05:55;9.03;;;4.07;;
21798;SDS011;24973;47.178;15.316;2023-05-29T11:08:45;7.60;;;4.67;;
21798;SDS011;24973;47.178;15.316;2023-05-29T11:11:35;6.73;;;4.23;;
21798;SDS011;24973;47.178;15.316;2023-05-29T11:14:28;6.63;;;4.33;;
21798;SDS011;24973;47.178;15.316;2023-05-29T11:17:30;7.20;;;4.23;;
21798;SDS011;24973;47.178;15.316;2023-05-29T11:20:34;8.17;;;4.73;;
21798;SDS011;24973;47.178;15.316;2023-05-29T11:23:25;5.57;;;4.17;;
21798;SDS011;24973;47.178;15.316;2023-05-29T11:26:21;6.63;;;4.60;;
21798;SDS011;24973;47.178;15.316;2023-05-29T11:29:15;7.17;;;4.50;;
21798;SDS011;24973;47.178;15.316;2023-05-29T11:32:05;9.57;;;5.30;;
21798;SDS011;24973;47.178;15.316;2023-05-29T11:34:56;7.60;;;4.80;;
21798;SDS011;24973;47.178;15.316;2023-05-29T11:37:47;6.33;;;5.23;;
21798;SDS011;24973;47.178;15.316;2023-05-29T11:40:37;6.10;;;5.40;;
21798;SDS011;24973;47.178;15.316;2023-05-29T11:43:26;8.23;;;4.43;;
21798;SDS011;24973;47.178;15.316;2023-05-29T11:46:18;7.63;;;4.87;;
21798;SDS011;24973;47.178;15.316;2023-05-29T11:49:07;10.43;;;5.33;;
21798;SDS011;24973;47.178;15.316;2023-05-29T11:52:05;8.30;;;5.17;;
21798;SDS011;24973;47.178;15.316;2023-05-29T11:55:06;6.70;;;5.17;;
21798;SDS011;24973;47.178;15.316;2023-05-29T11:57:56;7.87;;;5.13;;
21798;SDS011;24973;47.178;15.316;2023-05-29T12:00:47;5.43;;;4.67;;
21798;SDS011;24973;47.178;15.316;2023-05-29T12:03:37;5.57;;;4.20;;
21798;SDS011;24973;47.178;15.316;2023-05-29T12:06:30;5.77;;;5.10;;
21798;SDS011;24973;47.178;15.316;2023-05-29T12:09:26;9.40;;;4.90;;
21798;SDS011;24973;47.178;15.316;2023-05-29T12:12:17;7.27;;;4.90;;
21798;SDS011;24973;47.178;15.316;2023-05-29T12:15:07;6.37;;;4.60;;
21798;SDS011;24973;47.178;15.316;2023-05-29T12:17:57;7.67;;;4.87;;
21798;SDS011;24973;47.178;15.316;2023-05-29T12:20:47;8.77;;;4.60;;
21798;SDS011;24973;47.178;15.316;2023-05-29T12:23:37;6.93;;;4.37;;
21798;SDS011;24973;47.178;15.316;2023-05-29T12:26:27;6.73;;;4.90;;
21798;SDS011;24973;47.178;15.316;2023-05-29T12:29:20;5.97;;;4.67;;
21798;SDS011;24973;47.178;15.316;2023-05-29T12:32:18;6.73;;;4.33;;
21798;SDS011;24973;47.178;15.316;2023-05-29T12:35:11;7.03;;;4.77;;
21798;SDS011;24973;47.178;15.316;2023-05-29T12:38:01;8.27;;;4.70;;
21798;SDS011;24973;47.178;15.316;2023-05-29T12:40:55;6.03;;;5.13;;
21798;SDS011;24973;47.178;15.316;2023-05-29T12:43:44;7.70;;;5.55;;
21798;SDS011;24973;47.178;15.316;2023-05-29T12:46:37;5.27;;;4.27;;
21798;SDS011;24973;47.178;15.316;2023-05-29T12:49:29;7.78;;;4.88;;
21798;SDS011;24973;47.178;15.316;2023-05-29T12:52:23;6.88;;;4.60;;
21798;SDS011;24973;47.178;15.316;2023-05-29T12:55:12;6.85;;;4.63;;
21798;SDS011;24973;47.178;15.316;2023-05-29T12:58:01;6.43;;;4.97;;
21798;SDS011;24973;47.178;15.316;2023-05-29T13:00:52;6.18;;;4.35;;
21798;SDS011;24973;47.178;15.316;2023-05-29T13:03:44;5.22;;;4.20;;
21798;SDS011;24973;47.178;15.316;2023-05-29T13:06:34;5.47;;;4.22;;
21798;SDS011;24973;47.178;15.316;2023-05-29T13:09:23;8.50;;;4.35;;
21798;SDS011;24973;47.178;15.316;2023-05-29T13:12:12;5.97;;;5.15;;
21798;SDS011;24973;47.178;15.316;2023-05-29T13:15:01;8.63;;;4.65;;
21798;SDS011;24973;47.178;15.316;2023-05-29T13:17:52;9.02;;;4.22;;
21798;SDS011;24973;47.178;15.316;2023-05-29T13:20:43;6.90;;;5.10;;
21798;SDS011;24973;47.178;15.316;2023-05-29T13:23:32;7.63;;;4.93;;
21798;SDS011;24973;47.178;15.316;2023-05-29T13:26:21;5.75;;;4.65;;
21798;SDS011;24973;47.178;15.316;2023-05-29T13:29:10;6.18;;;4.55;;
21798;SDS011;24973;47.178;15.316;2023-05-29T13:31:59;5.40;;;4.78;;
21798;SDS011;24973;47.178;15.316;2023-05-29T13:34:48;5.80;;;4.23;;
21798;SDS011;24973;47.178;15.316;2023-05-29T13:37:39;6.70;;;4.20;;
21798;SDS011;24973;47.178;15.316;2023-05-29T13:40:29;7.97;;;4.90;;
21798;SDS011;24973;47.178;15.316;2023-05-29T13:43:19;5.60;;;4.37;;
21798;SDS011;24973;47.178;15.316;2023-05-29T13:46:10;7.20;;;4.67;;
21798;SDS011;24973;47.178;15.316;2023-05-29T13:48:59;7.27;;;4.93;;
21798;SDS011;24973;47.178;15.316;2023-05-29T13:51:48;9.40;;;5.20;;
21798;SDS011;24973;47.178;15.316;2023-05-29T13:54:39;5.70;;;4.77;;
21798;SDS011;24973;47.178;15.316;2023-05-29T13:57:28;6.07;;;3.90;;
21798;SDS011;24973;47.178;15.316;2023-05-29T14:00:18;9.57;;;4.93;;
21798;SDS011;24973;47.178;15.316;2023-05-29T14:03:07;7.83;;;4.90;;
21798;SDS011;24973;47.178;15.316;2023-05-29T14:05:56;8.10;;;4.37;;
21798;SDS011;24973;47.178;15.316;2023-05-29T14:08:45;9.20;;;4.73;;
21798;SDS011;24973;47.178;15.316;2023-05-29T14:11:36;6.20;;;4.60;;
21798;SDS011;24973;47.178;15.316;2023-05-29T14:14:25;5.33;;;4.80;;
21798;SDS011;24973;47.178;15.316;2023-05-29T14:17:15;8.10;;;5.30;;
21798;SDS011;24973;47.178;15.316;2023-05-29T14:20:04;7.37;;;4.67;;
21798;SDS011;24973;47.178;15.316;2023-05-29T14:22:55;8.93;;;5.10;;
21798;SDS011;24973;47.178;15.316;2023-05-29T14:25:44;9.87;;;5.30;;
21798;SDS011;24973;47.178;15.316;2023-05-29T14:28:34;7.63;;;4.87;;
21798;SDS011;24973;47.178;15.316;2023-05-29T14:31:25;7.67;;;4.97;;
21798;SDS011;24973;47.178;15.316;2023-05-29T14:34:14;5.57;;;4.33;;
21798;SDS011;24973;47.178;15.316;2023-05-29T14:37:03;7.67;;;4.70;;
21798;SDS011;24973;47.178;15.316;2023-05-29T14:39:52;6.93;;;4.70;;
21798;SDS011;24973;47.178;15.316;2023-05-29T14:42:41;6.33;;;4.80;;
21798;SDS011;24973;47.178;15.316;2023-05-29T14:45:32;7.60;;;4.40;;
21798;SDS011;24973;47.178;15.316;2023-05-29T14:48:21;4.63;;;4.20;;
21798;SDS011;24973;47.178;15.316;2023-05-29T14:51:10;6.33;;;4.30;;
21798;SDS011;24973;47.178;15.316;2023-05-29T14:53:59;10.43;;;5.00;;
21798;SDS011;24973;47.178;15.316;2023-05-29T14:56:48;8.13;;;4.93;;
21798;SDS011;24973;47.178;15.316;2023-05-29T14:59:37;12.10;;;5.00;;
21798;SDS011;24973;47.178;15.316;2023-05-29T15:02:28;6.35;;;4.78;;
21798;SDS011;24973;47.178;15.316;2023-05-29T15:05:17;7.65;;;5.55;;
21798;SDS011;24973;47.178;15.316;2023-05-29T15:08:07;6.32;;;4.50;;
21798;SDS011;24973;47.178;15.316;2023-05-29T15:10:56;6.53;;;4.20;;
21798;SDS011;24973;47.178;15.316;2023-05-29T15:13:45;5.65;;;4.53;;
21798;SDS011;24973;47.178;15.316;2023-05-29T15:16:34;5.67;;;4.40;;
21798;SDS011;24973;47.178;15.316;2023-05-29T15:19:25;7.83;;;5.23;;
21798;SDS011;24973;47.178;15.316;2023-05-29T15:22:14;5.63;;;4.30;;
21798;SDS011;24973;47.178;15.316;2023-05-29T15:25:03;6.80;;;4.70;;
21798;SDS011;24973;47.178;15.316;2023-05-29T15:27:53;6.17;;;4.80;;
21798;SDS011;24973;47.178;15.316;2023-05-29T15:30:42;5.87;;;4.10;;
21798;SDS011;24973;47.178;15.316;2023-05-29T15:33:31;6.87;;;4.60;;
21798;SDS011;24973;47.178;15.316;2023-05-29T15:36:21;5.03;;;4.43;;
21798;SDS011;24973;47.178;15.316;2023-05-29T15:39:10;6.13;;;4.70;;
21798;SDS011;24973;47.178;15.316;2023-05-29T15:41:59;7.10;;;4.83;;
21798;SDS011;24973;47.178;15.316;2023-05-29T15:44:48;5.77;;;3.93;;
21798;SDS011;24973;47.178;15.316;2023-05-29T15:47:37;6.37;;;5.00;;
21798;SDS011;24973;47.178;15.316;2023-05-29T15:50:28;6.23;;;4.60;;
21798;SDS011;24973;47.178;15.316;2023-05-29T15:53:19;9.27;;;4.23;;
21798;SDS011;24973;47.178;15.316;2023-05-29T15:56:08;8.03;;;4.80;;
21798;SDS011;24973;47.178;15.316;2023-05-29T15:58:57;5.70;;;4.20;;
21798;SDS011;24973;47.178;15.316;2023-05-29T16:01:46;8.23;;;4.63;;
21798;SDS011;24973;47.178;15.316;2023-05-29T16:04:35;7.13;;;4.73;;
21798;SDS011;24973;47.178;15.316;2023-05-29T16:07:24;5.63;;;4.30;;
21798;SDS011;24973;47.178;15.316;2023-05-29T16:10:15;5.93;;;4.43;;
21798;SDS011;24973;47.178;15.316;2023-05-29T16:13:06;6.17;;;4.03;;
21798;SDS011;24973;47.178;15.316;2023-05-29T16:15:55;6.93;;;4.40;;
21798;SDS011;24973;47.178;15.316;2023-05-29T16:18:45;5.27;;;4.07;;
21798;SDS011;24973;47.178;15.316;2023-05-29T16:21:34;6.53;;;4.60;;
21798;SDS011;24973;47.178;15.316;2023-05-29T16:24:23;6.53;;;4.30;;
21798;SDS011;24973;47.178;15.316;2023-05-29T16:27:14;8.37;;;4.67;;
21798;SDS011;24973;47.178;15.316;2023-05-29T16:30:04;6.63;;;4.20;;
21798;SDS011;24973;47.178;15.316;2023-05-29T16:32:54;6.43;;;4.00;;
21798;SDS011;24973;47.178;15.316;2023-05-29T16:35:43;5.50;;;4.20;;
21798;SDS011;24973;47.178;15.316;2023-05-29T16:38:32;5.90;;;4.20;;
21798;SDS011;24973;47.178;15.316;2023-05-29T16:41:22;5.83;;;4.23;;
21798;SDS011;24973;47.178;15.316;2023-05-29T16:44:12;6.70;;;4.17;;
21798;SDS011;24973;47.178;15.316;2023-05-29T16:47:02;5.67;;;3.90;;
21798;SDS011;24973;47.178;15.316;2023-05-29T16:49:51;7.30;;;4.40;;
21798;SDS011;24973;47.178;15.316;2023-05-29T16:52:40;5.37;;;3.63;;